Time;durP1;ratioP1;P1;durP2;ratioP2;P2;SDS_P1;SDS_P2;PMS_P1;PMS_P2;Temp;Humidity;BMP_temperature;BMP_pressure;BME280_temperature;BME280_humidity;BME280_pressure;Samples;Min_cycle;Max_cycle;Signal;HPM_P1;HPM_P2
2021/05/07 00:01:18;;;;;;;2.10;1.30;;;23.00;34.00;;;;;;6068263;28;82817;-64
2021/05/07 00:04:19;;;;;;;2.50;1.40;;;23.00;33.90;;;;;;6062044;28;80584;-64
2021/05/07 00:07:19;;;;;;;2.30;1.60;;;23.00;33.60;;;;;;6067845;28;80473;-64
2021/05/07 00:10:20;;;;;;;1.42;1.33;;;23.00;33.90;;;;;;6061622;28;81690;-63
2021/05/07 00:13:20;;;;;;;2.70;1.38;;;23.00;33.50;;;;;;6060062;28;81012;-64
2021/05/07 00:16:21;;;;;;;2.47;1.30;;;23.00;33.50;;;;;;6061911;28;81945;-64
2021/05/07 00:19:22;;;;;;;2.40;1.75;;;23.00;33.60;;;;;;6065719;28;81169;-64
2021/05/07 00:22:22;;;;;;;3.22;1.52;;;23.00;33.80;;;;;;6061711;28;81634;-64
2021/05/07 00:25:23;;;;;;;1.83;1.42;;;23.00;33.80;;;;;;6063076;28;81485;-63
2021/05/07 00:28:23;;;;;;;1.95;1.65;;;23.00;34.00;;;;;;6062328;28;82668;-63
2021/05/07 00:31:24;;;;;;;2.22;1.48;;;23.00;34.00;;;;;;6070376;28;80393;-64
2021/05/07 00:34:24;;;;;;;2.28;1.73;;;23.00;34.10;;;;;;6058884;28;81369;-63
2021/05/07 00:37:25;;;;;;;2.00;1.45;;;23.00;34.10;;;;;;6058987;28;83303;-63
2021/05/07 00:40:25;;;;;;;2.05;1.55;;;23.00;35.50;;;;;;6061657;28;80806;-63
2021/05/07 00:43:26;;;;;;;6.18;1.60;;;23.00;35.00;;;;;;6060486;28;81375;-64
2021/05/07 00:46:27;;;;;;;3.05;1.40;;;23.00;34.80;;;;;;6065049;28;83115;-64
2021/05/07 00:49:27;;;;;;;1.77;1.30;;;23.00;35.50;;;;;;6060163;28;82823;-64
2021/05/07 00:52:33;;;;;;;2.50;1.52;;;23.00;35.70;;;;;;6065245;28;83740;-64
2021/05/07 00:55:34;;;;;;;;;;;23.00;35.40;;;;;;6061856;28;80872;-64
2021/05/07 00:58:36;;;;;;;1.45;1.20;;;23.00;35.20;;;;;;6068911;28;82644;-63
2021/05/07 01:01:37;;;;;;;2.08;1.60;;;23.00;35.80;;;;;;6061485;28;80520;-63
2021/05/07 01:04:38;;;;;;;3.33;1.40;;;23.00;35.70;;;;;;6062725;28;83041;-64
2021/05/07 01:07:38;;;;;;;2.30;1.55;;;23.00;35.70;;;;;;6055999;28;81722;-64
2021/05/07 01:10:39;;;;;;;1.95;1.30;;;23.00;35.30;;;;;;6064380;28;81015;-64
2021/05/07 01:13:41;;;;;;;4.35;1.88;;;23.00;35.60;;;;;;6060333;28;82354;-64
2021/05/07 01:16:46;;;;;;;4.10;1.70;;;23.00;35.70;;;;;;6063645;28;80727;-64
2021/05/07 01:19:47;;;;;;;5.70;1.60;;;23.00;35.90;;;;;;6059600;28;82021;-64
2021/05/07 01:22:48;;;;;;;3.25;1.67;;;23.00;36.00;;;;;;6062274;28;81347;-64
2021/05/07 01:25:50;;;;;;;7.38;1.95;;;23.00;34.50;;;;;;6059349;28;80537;-64
2021/05/07 01:28:50;;;;;;;2.60;1.63;;;23.00;34.20;;;;;;6061276;28;81475;-64
2021/05/07 01:31:54;;;;;;;2.67;1.80;;;23.00;34.80;;;;;;6061378;28;80685;-63
2021/05/07 01:34:55;;;;;;;4.53;1.70;;;23.00;35.70;;;;;;6057937;28;81832;-64
2021/05/07 01:37:55;;;;;;;3.97;1.73;;;23.00;35.40;;;;;;6058529;28;80665;-64
2021/05/07 01:40:57;;;;;;;2.80;1.70;;;23.00;35.80;;;;;;6076609;28;83361;-63
2021/05/07 01:44:03;;;;;;;2.95;1.92;;;23.00;35.80;;;;;;6061326;28;81827;-63
2021/05/07 01:47:04;;;;;;;3.05;1.88;;;23.00;35.80;;;;;;6065379;28;80871;-63
2021/05/07 01:50:04;;;;;;;3.08;1.80;;;23.00;35.90;;;;;;6059172;28;81674;-64
2021/05/07 01:53:05;;;;;;;4.43;2.22;;;23.00;36.10;;;;;;6058510;28;82131;-65
2021/05/07 01:56:05;;;;;;;3.15;2.20;;;23.00;36.00;;;;;;6058767;28;82214;-64
2021/05/07 01:59:14;;;;;;;4.57;1.80;;;23.00;35.70;;;;;;6059960;28;81614;-64
2021/05/07 02:02:15;;;;;;;3.95;2.03;;;23.00;35.80;;;;;;6068207;28;83284;-64
2021/05/07 02:05:15;;;;;;;4.78;2.85;;;23.00;35.60;;;;;;6072959;28;80814;-64
2021/05/07 02:08:16;;;;;;;5.30;2.15;;;23.00;35.40;;;;;;6070277;28;83424;-64
2021/05/07 02:11:17;;;;;;;3.50;2.38;;;23.00;35.30;;;;;;6064018;28;82300;-64
2021/05/07 02:14:18;;;;;;;4.03;2.40;;;23.00;35.40;;;;;;6049985;28;83389;-64
2021/05/07 02:17:18;;;;;;;2.95;1.75;;;23.00;35.40;;;;;;6061433;28;82156;-64
2021/05/07 02:20:19;;;;;;;5.75;1.95;;;23.00;35.90;;;;;;6069996;28;80612;-65
2021/05/07 02:23:20;;;;;;;2.70;1.70;;;23.00;35.80;;;;;;6067373;28;80224;-64
2021/05/07 02:26:20;;;;;;;2.35;1.80;;;23.00;35.60;;;;;;6065463;28;80516;-64
2021/05/07 02:29:29;;;;;;;4.07;2.33;;;23.00;35.40;;;;;;6064588;28;83414;-64
2021/05/07 02:32:30;;;;;;;2.60;1.70;;;23.00;34.80;;;;;;6062584;28;83257;-65
2021/05/07 02:35:32;;;;;;;2.83;2.05;;;23.00;35.80;;;;;;6063574;28;82507;-65
2021/05/07 02:38:34;;;;;;;3.13;2.13;;;23.00;35.60;;;;;;6062613;28;83330;-65
2021/05/07 02:41:38;;;;;;;3.88;2.20;;;23.00;35.90;;;;;;6075220;28;83131;-64
2021/05/07 02:44:39;;;;;;;3.00;1.88;;;23.00;35.80;;;;;;6064437;28;80929;-65
2021/05/07 02:47:39;;;;;;;4.78;2.22;;;23.00;35.80;;;;;;6067174;28;80412;-65
2021/05/07 02:50:41;;;;;;;2.28;1.58;;;23.00;35.60;;;;;;6061226;28;83179;-65
2021/05/07 02:53:41;;;;;;;2.67;1.70;;;22.90;35.80;;;;;;6063122;28;80539;-64
2021/05/07 02:56:42;;;;;;;2.90;1.50;;;22.90;35.60;;;;;;6063170;28;80805;-63
2021/05/07 02:59:43;;;;;;;2.83;1.73;;;22.90;35.40;;;;;;6062745;28;82927;-64
2021/05/07 03:02:43;;;;;;;2.95;1.63;;;22.90;35.00;;;;;;6064689;28;81471;-63
2021/05/07 03:05:44;;;;;;;2.85;1.55;;;22.90;35.00;;;;;;6058297;28;80405;-63
2021/05/07 03:08:44;;;;;;;2.45;1.52;;;22.90;35.90;;;;;;6063807;28;80285;-63
2021/05/07 03:11:45;;;;;;;2.67;1.65;;;22.90;35.60;;;;;;6063279;28;82994;-63
2021/05/07 03:14:45;;;;;;;2.25;1.55;;;22.90;35.70;;;;;;6062069;28;80820;-63
2021/05/07 03:17:49;;;;;;;2.15;1.70;;;22.90;35.80;;;;;;6063822;28;80909;-63
2021/05/07 03:20:49;;;;;;;2.55;1.33;;;22.90;35.90;;;;;;6065284;28;81599;-63
2021/05/07 03:23:50;;;;;;;2.13;1.30;;;22.90;35.90;;;;;;6064233;28;81034;-63
2021/05/07 03:26:51;;;;;;;2.13;1.30;;;22.90;35.60;;;;;;6067303;28;81660;-63
2021/05/07 03:29:51;;;;;;;1.70;1.30;;;22.90;35.40;;;;;;6049228;28;80907;-64
2021/05/07 03:32:52;;;;;;;2.30;1.48;;;22.90;35.50;;;;;;6066152;28;82067;-63
2021/05/07 03:35:52;;;;;;;1.52;1.23;;;22.90;35.70;;;;;;6062049;28;81683;-63
2021/05/07 03:38:53;;;;;;;1.80;1.25;;;22.90;35.80;;;;;;6066793;28;80571;-63
2021/05/07 03:41:53;;;;;;;3.22;1.50;;;22.90;35.40;;;;;;6060287;28;81714;-63
2021/05/07 03:44:54;;;;;;;1.38;1.20;;;22.90;35.70;;;;;;6064189;28;80506;-63
2021/05/07 03:47:55;;;;;;;1.73;1.20;;;22.90;35.70;;;;;;6066690;28;81626;-63
2021/05/07 03:50:55;;;;;;;1.63;1.25;;;22.90;35.70;;;;;;6068286;28;80689;-63
2021/05/07 03:53:56;;;;;;;1.60;1.20;;;22.90;35.80;;;;;;6060918;28;80632;-63
2021/05/07 03:56:56;;;;;;;2.13;1.30;;;22.90;36.10;;;;;;6062185;28;80524;-63
2021/05/07 03:59:57;;;;;;;1.67;1.30;;;22.90;35.30;;;;;;6060046;28;80397;-63
2021/05/07 04:02:57;;;;;;;1.38;1.27;;;22.90;35.40;;;;;;6060440;28;80306;-64
2021/05/07 04:05:58;;;;;;;1.77;1.40;;;22.90;34.70;;;;;;6061774;28;80641;-63
2021/05/07 04:12:30;;;;;;;2.40;1.15;;;23.00;35.70;;;;;;6061123;28;80549;-63
2021/05/07 04:15:31;;;;;;;1.20;1.10;;;22.90;35.90;;;;;;6064337;28;80750;-65
2021/05/07 04:18:32;;;;;;;1.60;1.10;;;22.90;35.50;;;;;;6064055;28;81671;-64
2021/05/07 04:21:32;;;;;;;1.48;1.13;;;23.00;36.10;;;;;;6062863;28;82056;-63
2021/05/07 04:24:33;;;;;;;1.25;1.10;;;22.90;37.10;;;;;;6056124;28;80274;-63
2021/05/07 04:27:33;;;;;;;5.32;1.30;;;22.90;35.90;;;;;;6062924;28;80327;-64
2021/05/07 04:30:34;;;;;;;1.17;1.08;;;22.90;37.00;;;;;;6065460;28;80404;-63
2021/05/07 04:33:34;;;;;;;1.65;1.20;;;22.90;35.50;;;;;;6064876;28;81801;-63
2021/05/07 04:36:35;;;;;;;1.63;1.20;;;22.90;35.90;;;;;;6061163;28;81055;-63
2021/05/07 04:39:35;;;;;;;2.58;1.20;;;23.00;36.20;;;;;;6061528;28;81464;-63
2021/05/07 04:42:36;;;;;;;1.45;1.05;;;23.00;35.60;;;;;;6062583;28;80299;-63
2021/05/07 04:45:36;;;;;;;2.20;1.30;;;23.00;35.80;;;;;;6062889;28;80347;-64
2021/05/07 04:48:37;;;;;;;1.55;1.30;;;23.00;35.70;;;;;;6052073;28;81075;-63
2021/05/07 04:51:38;;;;;;;1.63;1.20;;;23.00;36.10;;;;;;6060884;28;80414;-63
2021/05/07 04:54:38;;;;;;;1.83;1.38;;;23.00;36.70;;;;;;6061415;28;80705;-63
2021/05/07 04:57:39;;;;;;;3.92;1.65;;;23.00;37.60;;;;;;6053483;28;80937;-64
2021/05/07 05:00:39;;;;;;;1.90;1.30;;;23.00;37.00;;;;;;6056243;28;80931;-63
2021/05/07 05:03:40;;;;;;;3.05;1.50;;;23.00;37.30;;;;;;6061682;28;80127;-64
2021/05/07 05:06:40;;;;;;;1.83;1.40;;;23.00;37.70;;;;;;6064278;28;80512;-63
2021/05/07 05:09:41;;;;;;;3.78;1.40;;;23.00;38.10;;;;;;6062418;28;83362;-62
2021/05/07 05:12:41;;;;;;;2.75;1.40;;;23.00;38.70;;;;;;6063892;28;80966;-62
2021/05/07 05:15:42;;;;;;;5.25;1.50;;;23.00;38.70;;;;;;6064934;28;80406;-62
2021/05/07 05:18:42;;;;;;;2.17;1.48;;;23.10;38.90;;;;;;6060666;28;80762;-62
2021/05/07 05:21:43;;;;;;;2.45;1.48;;;23.10;38.70;;;;;;6057977;28;79987;-63
2021/05/07 05:24:44;;;;;;;3.92;2.00;;;23.10;39.40;;;;;;6061444;28;80214;-62
2021/05/07 05:27:44;;;;;;;3.53;1.55;;;23.10;39.00;;;;;;6056057;28;80504;-62
2021/05/07 05:30:45;;;;;;;1.83;1.30;;;23.20;39.10;;;;;;6059751;28;80450;-62
2021/05/07 05:33:45;;;;;;;4.57;1.65;;;23.10;39.20;;;;;;6053893;28;81731;-63
2021/05/07 05:36:46;;;;;;;3.83;2.00;;;23.10;39.10;;;;;;6060472;28;81516;-60
2021/05/07 05:39:47;;;;;;;3.10;1.52;;;23.20;39.10;;;;;;6061753;28;80223;-63
2021/05/07 05:42:47;;;;;;;5.53;1.88;;;23.20;38.70;;;;;;6060077;28;80813;-65
2021/05/07 05:45:48;;;;;;;7.90;1.95;;;23.20;38.70;;;;;;6064481;28;80407;-61
2021/05/07 05:48:48;;;;;;;4.45;1.73;;;23.20;38.60;;;;;;6069433;28;80353;-63
2021/05/07 05:51:49;;;;;;;2.17;1.67;;;23.20;38.30;;;;;;6071832;28;80533;-63
2021/05/07 05:54:49;;;;;;;4.50;1.70;;;23.20;39.10;;;;;;6059088;28;81330;-62
2021/05/07 05:57:50;;;;;;;2.42;1.63;;;23.20;38.40;;;;;;6060566;28;80316;-61
2021/05/07 06:00:50;;;;;;;3.72;1.60;;;23.20;38.70;;;;;;6059257;28;81081;-62
2021/05/07 06:03:51;;;;;;;2.65;1.70;;;23.20;38.40;;;;;;6052436;28;83878;-61
2021/05/07 06:06:52;;;;;;;6.10;1.60;;;23.20;38.40;;;;;;6062575;28;80644;-61
2021/05/07 06:09:52;;;;;;;3.60;1.63;;;23.20;38.10;;;;;;6061463;28;80277;-60
2021/05/07 06:12:53;;;;;;;7.03;1.70;;;23.20;37.60;;;;;;6057623;28;80294;-61
2021/05/07 06:15:53;;;;;;;1.98;1.35;;;23.20;38.50;;;;;;6060721;28;80711;-61
2021/05/07 06:18:54;;;;;;;18.05;2.55;;;23.20;37.10;;;;;;6064227;28;80419;-62
2021/05/07 06:21:55;;;;;;;15.75;3.00;;;23.20;36.90;;;;;;6054420;28;80342;-62
2021/05/07 06:24:55;;;;;;;21.50;2.25;;;23.10;36.70;;;;;;6057278;28;80564;-62
2021/05/07 06:27:56;;;;;;;12.82;2.05;;;23.10;37.00;;;;;;6057731;28;83102;-63
2021/05/07 06:30:58;;;;;;;8.73;1.92;;;23.10;37.00;;;;;;6069176;28;80643;-62
2021/05/07 06:33:59;;;;;;;3.20;2.15;;;23.10;36.70;;;;;;6060124;28;82073;-63
2021/05/07 06:36:59;;;;;;;7.25;2.20;;;23.10;36.70;;;;;;6057885;28;80906;-64
2021/05/07 06:40:00;;;;;;;5.72;1.50;;;23.20;36.80;;;;;;6060757;28;80532;-63
2021/05/07 06:43:00;;;;;;;3.17;1.42;;;23.10;36.70;;;;;;6053507;28;81017;-63
2021/05/07 06:46:01;;;;;;;5.30;1.52;;;23.20;36.80;;;;;;6048965;28;86491;-67
2021/05/07 06:49:02;;;;;;;2.97;1.40;;;23.10;36.70;;;;;;6061155;28;80851;-64
2021/05/07 06:52:02;;;;;;;7.22;1.50;;;23.20;37.60;;;;;;6058792;28;81757;-64
2021/05/07 06:55:03;;;;;;;5.53;2.00;;;23.20;37.80;;;;;;6058901;28;81720;-66
2021/05/07 06:58:03;;;;;;;4.40;2.17;;;23.10;39.10;;;;;;6061179;28;80489;-65
2021/05/07 07:01:04;;;;;;;4.38;1.50;;;23.20;38.40;;;;;;6062135;28;80963;-67
2021/05/07 07:04:04;;;;;;;4.22;1.55;;;23.30;38.30;;;;;;6056064;28;80735;-65
2021/05/07 07:07:05;;;;;;;8.30;1.75;;;23.30;37.90;;;;;;6065364;28;83007;-66
2021/05/07 07:10:05;;;;;;;3.20;1.92;;;23.40;38.10;;;;;;6059416;28;81014;-66
2021/05/07 07:13:06;;;;;;;6.78;1.70;;;23.30;37.10;;;;;;6063799;28;81431;-64
2021/05/07 07:16:06;;;;;;;4.18;1.50;;;23.30;37.20;;;;;;6062951;28;80662;-65
2021/05/07 07:19:07;;;;;;;2.65;1.48;;;23.30;36.90;;;;;;6062881;28;80317;-64
2021/05/07 07:22:07;;;;;;;2.08;1.25;;;23.30;37.00;;;;;;6061808;28;80495;-65
2021/05/07 07:25:10;;;;;;;5.25;1.60;;;23.30;37.00;;;;;;6056252;28;81510;-65
2021/05/07 07:28:11;;;;;;;2.30;1.80;;;23.30;37.30;;;;;;6053550;28;80823;-64
2021/05/07 07:31:12;;;;;;;3.95;1.40;;;23.30;37.00;;;;;;6050610;28;82428;-63
2021/05/07 07:34:12;;;;;;;4.15;1.38;;;23.30;36.80;;;;;;6058393;28;81893;-63
2021/05/07 07:37:13;;;;;;;5.35;1.30;;;23.30;36.70;;;;;;6060638;28;80781;-66
2021/05/07 07:40:13;;;;;;;2.70;1.45;;;23.30;37.60;;;;;;6058533;28;81252;-67
2021/05/07 07:43:14;;;;;;;2.00;1.55;;;23.30;37.60;;;;;;6068280;28;80726;-65
2021/05/07 07:46:14;;;;;;;1.88;1.10;;;23.30;37.80;;;;;;6069234;28;80846;-65
2021/05/07 07:49:16;;;;;;;2.45;1.35;;;23.30;38.10;;;;;;6060433;28;81485;-65
2021/05/07 07:52:16;;;;;;;3.35;1.27;;;23.40;39.00;;;;;;6064693;28;82892;-65
2021/05/07 07:55:16;;;;;;;3.45;1.33;;;23.30;38.80;;;;;;6061595;28;80440;-63
2021/05/07 07:58:18;;;;;;;2.42;1.60;;;23.30;39.30;;;;;;6066527;28;80756;-65
2021/05/07 08:01:19;;;;;;;1.33;1.08;;;23.40;40.10;;;;;;6062707;28;80604;-64
2021/05/07 08:04:19;;;;;;;2.53;1.40;;;23.40;40.30;;;;;;6066327;28;81646;-65
2021/05/07 08:07:20;;;;;;;2.55;1.35;;;23.40;40.10;;;;;;6061347;28;80158;-65
2021/05/07 08:10:20;;;;;;;1.30;1.17;;;23.50;40.40;;;;;;6054280;28;80895;-64
2021/05/07 08:13:21;;;;;;;2.10;1.10;;;23.50;40.50;;;;;;6060953;28;83356;-64
2021/05/07 08:16:21;;;;;;;1.65;1.38;;;23.50;41.00;;;;;;6066271;28;80941;-64
2021/05/07 08:19:22;;;;;;;14.85;1.73;;;23.50;40.60;;;;;;6054119;28;80433;-66
2021/05/07 08:22:22;;;;;;;3.85;1.30;;;23.50;40.90;;;;;;6065310;28;80805;-65
2021/05/07 08:25:23;;;;;;;2.67;1.10;;;23.50;40.80;;;;;;6060382;28;82264;-64
2021/05/07 08:28:24;;;;;;;1.40;1.05;;;23.50;40.70;;;;;;6064961;28;81212;-66
2021/05/07 08:31:24;;;;;;;3.60;1.15;;;23.50;40.30;;;;;;6058539;28;80429;-66
2021/05/07 08:34:25;;;;;;;1.58;1.02;;;23.50;40.10;;;;;;6069271;28;83329;-66
2021/05/07 08:37:26;;;;;;;1.55;1.00;;;23.50;39.90;;;;;;6058651;28;80594;-67
2021/05/07 08:40:26;;;;;;;3.45;1.40;;;23.50;39.60;;;;;;6069154;28;85223;-65
2021/05/07 08:43:27;;;;;;;1.27;0.90;;;23.50;39.40;;;;;;6058517;28;80678;-66
2021/05/07 08:46:27;;;;;;;4.28;1.15;;;23.50;39.10;;;;;;6055720;28;81878;-66
2021/05/07 08:49:28;;;;;;;1.73;1.10;;;23.50;38.90;;;;;;6057479;28;80402;-66
2021/05/07 08:52:28;;;;;;;2.08;1.00;;;23.50;38.60;;;;;;6058820;28;80646;-65
2021/05/07 08:55:29;;;;;;;1.50;1.38;;;23.50;38.30;;;;;;6055687;28;80509;-65
2021/05/07 08:58:29;;;;;;;1.40;1.10;;;23.50;38.20;;;;;;6062684;28;81842;-65
2021/05/07 09:01:30;;;;;;;2.05;1.48;;;23.50;38.10;;;;;;6065803;28;80295;-65
2021/05/07 09:04:30;;;;;;;3.65;1.58;;;23.50;38.10;;;;;;6064769;28;81379;-64
2021/05/07 09:07:31;;;;;;;5.57;1.60;;;23.50;38.10;;;;;;6061409;28;88146;-64
2021/05/07 09:10:31;;;;;;;6.28;1.80;;;23.50;38.00;;;;;;6052325;28;81008;-66
2021/05/07 09:13:32;;;;;;;3.53;1.30;;;23.50;37.80;;;;;;6059403;28;80713;-65
2021/05/07 09:16:33;;;;;;;5.07;1.90;;;23.50;37.40;;;;;;6062765;28;81120;-65
2021/05/07 09:19:37;;;;;;;4.57;1.15;;;23.50;37.40;;;;;;6064497;28;80889;-64
2021/05/07 09:22:38;;;;;;;6.85;1.30;;;23.50;37.70;;;;;;6067435;28;80537;-64
2021/05/07 09:25:38;;;;;;;2.90;1.00;;;23.50;37.50;;;;;;6056090;28;81272;-66
2021/05/07 09:28:39;;;;;;;2.75;1.00;;;23.50;37.60;;;;;;6057468;28;81433;-65
2021/05/07 09:31:39;;;;;;;3.45;1.50;;;23.50;37.60;;;;;;6068395;28;80839;-65
2021/05/07 09:34:40;;;;;;;1.85;1.10;;;23.50;37.80;;;;;;6057050;28;80810;-65
2021/05/07 09:37:40;;;;;;;9.88;2.05;;;23.50;37.80;;;;;;6066672;28;80573;-63
2021/05/07 09:40:41;;;;;;;2.00;1.50;;;23.50;37.90;;;;;;6066044;28;85114;-64
2021/05/07 09:43:41;;;;;;;2.65;1.40;;;23.50;38.50;;;;;;6060931;28;81027;-63
2021/05/07 09:46:42;;;;;;;3.28;1.80;;;23.50;38.80;;;;;;6059623;28;80280;-65
2021/05/07 09:49:42;;;;;;;2.13;1.55;;;23.50;39.20;;;;;;6058720;28;81449;-65
2021/05/07 09:52:44;;;;;;;2.55;1.77;;;23.50;38.70;;;;;;6057705;28;82956;-64
2021/05/07 09:55:45;;;;;;;1.92;1.70;;;23.50;38.70;;;;;;6058448;28;81410;-63
2021/05/07 09:58:45;;;;;;;3.00;1.65;;;23.50;38.90;;;;;;6058497;28;80852;-64
2021/05/07 10:01:46;;;;;;;2.03;1.40;;;23.50;38.70;;;;;;6063404;28;83602;-65
2021/05/07 10:04:47;;;;;;;5.80;2.25;;;23.50;39.00;;;;;;6067888;28;81728;-58
2021/05/07 10:07:47;;;;;;;6.93;1.60;;;23.50;38.60;;;;;;6061369;28;81342;-67
2021/05/07 10:10:48;;;;;;;9.77;1.65;;;23.40;38.40;;;;;;6061408;28;83290;-70
2021/05/07 10:13:48;;;;;;;2.55;1.13;;;23.50;39.30;;;;;;6063825;28;80489;-65
2021/05/07 10:16:48;;;;;;;2.13;1.10;;;23.40;37.00;;;;;;6059246;28;83431;-65
2021/05/07 10:19:50;;;;;;;3.58;0.90;;;22.70;36.40;;;;;;6060162;28;80220;-66
2021/05/07 10:22:50;;;;;;;3.88;1.20;;;22.50;36.90;;;;;;6059103;28;81108;-65
2021/05/07 10:25:51;;;;;;;2.90;1.35;;;22.50;37.00;;;;;;6063698;28;80513;-65
2021/05/07 10:28:52;;;;;;;1.10;1.00;;;22.50;36.70;;;;;;6063084;28;80238;-65
2021/05/07 10:31:53;;;;;;;2.20;1.40;;;22.40;36.70;;;;;;6068736;28;80200;-65
2021/05/07 10:34:53;;;;;;;5.00;1.35;;;22.40;36.90;;;;;;6068202;28;81037;-65
2021/05/07 10:37:54;;;;;;;1.80;1.40;;;22.40;36.60;;;;;;6067971;28;80469;-65
2021/05/07 10:40:54;;;;;;;2.75;0.98;;;22.40;36.40;;;;;;6061498;28;82597;-65
2021/05/07 10:43:55;;;;;;;5.90;1.60;;;22.50;35.60;;;;;;6062028;28;80026;-65
2021/05/07 10:46:55;;;;;;;1.83;0.75;;;22.60;36.00;;;;;;6064395;28;80654;-65
2021/05/07 10:49:56;;;;;;;1.98;1.25;;;22.70;36.10;;;;;;6064175;28;80320;-65
2021/05/07 10:52:56;;;;;;;2.08;0.95;;;22.70;35.20;;;;;;6064983;28;83484;-65
2021/05/07 10:55:57;;;;;;;1.73;0.88;;;22.20;34.70;;;;;;6067859;28;81276;-64
2021/05/07 10:58:58;;;;;;;1.83;0.88;;;22.30;35.00;;;;;;6070052;28;80354;-64
2021/05/07 11:01:58;;;;;;;4.75;1.00;;;22.20;35.00;;;;;;6065713;28;81542;-64
2021/05/07 11:04:59;;;;;;;3.30;0.88;;;22.10;34.70;;;;;;6061418;28;80478;-64
2021/05/07 11:07:59;;;;;;;3.83;1.30;;;22.30;35.60;;;;;;6063011;28;82159;-64
2021/05/07 11:11:00;;;;;;;1.20;1.00;;;22.40;34.90;;;;;;6063028;28;83599;-64
2021/05/07 11:14:00;;;;;;;1.38;1.27;;;22.40;34.60;;;;;;6065692;28;83465;-64
2021/05/07 11:17:03;;;;;;;1.95;1.70;;;22.50;35.20;;;;;;6070091;28;80502;-65
2021/05/07 11:20:03;;;;;;;2.25;1.20;;;22.50;34.90;;;;;;6067639;28;81521;-65
2021/05/07 11:23:04;;;;;;;2.28;1.25;;;22.50;35.40;;;;;;6060982;28;80559;-65
2021/05/07 11:26:05;;;;;;;6.80;1.08;;;22.50;35.50;;;;;;6068608;28;81034;-64
2021/05/07 11:29:05;;;;;;;3.28;0.85;;;22.50;35.00;;;;;;6061348;28;80269;-65
2021/05/07 11:32:06;;;;;;;1.10;0.77;;;22.50;35.20;;;;;;6062615;28;80895;-65
2021/05/07 11:35:07;;;;;;;1.67;1.13;;;22.50;35.10;;;;;;6065987;28;82262;-64
2021/05/07 11:38:08;;;;;;;0.70;0.70;;;22.40;35.00;;;;;;6065791;28;81750;-64
2021/05/07 11:41:08;;;;;;;4.03;0.93;;;22.50;34.80;;;;;;6066570;28;80505;-65
2021/05/07 11:44:09;;;;;;;1.17;0.85;;;22.50;35.00;;;;;;6062128;28;81318;-65
2021/05/07 11:47:09;;;;;;;3.45;0.73;;;22.60;34.80;;;;;;6069022;28;80709;-65
2021/05/07 11:50:10;;;;;;;1.65;0.80;;;22.60;34.80;;;;;;6062250;28;81290;-65
2021/05/07 11:53:11;;;;;;;3.30;0.77;;;22.70;34.10;;;;;;6066601;28;80912;-65
2021/05/07 11:56:11;;;;;;;0.98;0.80;;;22.50;33.50;;;;;;6061896;28;83041;-65
2021/05/07 11:59:12;;;;;;;1.98;0.90;;;22.10;33.00;;;;;;6064317;28;80981;-65
2021/05/07 12:02:12;;;;;;;1.52;1.00;;;22.10;33.10;;;;;;6067464;28;81656;-65
2021/05/07 12:05:13;;;;;;;2.88;1.10;;;22.20;33.10;;;;;;6065940;28;80711;-65
2021/05/07 12:08:13;;;;;;;3.85;1.13;;;22.30;33.40;;;;;;6062821;28;81613;-65
2021/05/07 12:11:14;;;;;;;3.10;1.00;;;22.30;33.10;;;;;;6059248;28;81047;-63
2021/05/07 12:14:14;;;;;;;1.85;1.00;;;22.10;33.50;;;;;;6062037;28;81189;-64
2021/05/07 12:17:15;;;;;;;1.98;1.30;;;21.90;33.40;;;;;;6063445;28;80670;-65
2021/05/07 12:20:16;;;;;;;2.08;1.05;;;22.20;34.20;;;;;;6060928;28;80395;-66
2021/05/07 12:23:16;;;;;;;2.90;1.30;;;22.30;34.50;;;;;;6061067;28;82727;-65
2021/05/07 12:26:17;;;;;;;1.88;1.20;;;22.30;35.10;;;;;;6064653;28;81766;-65
2021/05/07 12:29:17;;;;;;;3.10;1.33;;;22.50;36.40;;;;;;6060363;28;83242;-57
2021/05/07 12:32:18;;;;;;;4.72;1.60;;;22.50;35.30;;;;;;6061598;28;80416;-63
2021/05/07 12:35:18;;;;;;;5.13;1.65;;;22.50;35.50;;;;;;6064295;28;81408;-63
2021/05/07 12:38:19;;;;;;;3.53;1.60;;;22.50;35.50;;;;;;6063363;28;80511;-64
2021/05/07 12:41:22;;;;;;;5.20;1.60;;;22.50;35.30;;;;;;6073050;28;80417;-64
2021/05/07 12:44:22;;;;;;;2.10;1.35;;;22.50;35.50;;;;;;6066063;28;80766;-64
2021/05/07 12:47:23;;;;;;;1.85;1.50;;;22.50;35.30;;;;;;6063055;28;80585;-64
2021/05/07 12:50:23;;;;;;;4.07;1.80;;;22.60;35.70;;;;;;6072283;28;81423;-63
2021/05/07 12:53:24;;;;;;;5.60;1.52;;;22.60;35.80;;;;;;6061386;28;81743;-64
2021/05/07 12:56:25;;;;;;;5.63;1.33;;;22.70;35.70;;;;;;6061752;28;80577;-64
2021/05/07 12:59:25;;;;;;;3.33;1.50;;;22.70;36.10;;;;;;6063393;28;81177;-64
2021/05/07 13:02:26;;;;;;;2.75;1.48;;;22.70;35.50;;;;;;6067715;28;90405;-64
2021/05/07 13:05:27;;;;;;;4.85;1.42;;;22.80;35.90;;;;;;6063259;28;81698;-63
2021/05/07 13:08:27;;;;;;;4.97;1.80;;;22.80;36.00;;;;;;6059952;28;80819;-64
2021/05/07 13:11:28;;;;;;;5.65;1.40;;;22.90;36.20;;;;;;6063922;28;80647;-64
2021/05/07 13:14:28;;;;;;;5.40;1.92;;;22.90;36.10;;;;;;6066839;28;81900;-64
2021/05/07 13:17:29;;;;;;;6.03;1.40;;;22.90;35.70;;;;;;6060127;28;80465;-65
2021/05/07 13:20:29;;;;;;;8.20;1.70;;;23.00;36.20;;;;;;6061688;28;81756;-66
2021/05/07 13:23:30;;;;;;;4.13;1.58;;;23.00;36.30;;;;;;6059592;28;80403;-63
2021/05/07 13:26:30;;;;;;;2.20;1.58;;;23.00;36.00;;;;;;6058616;28;80630;-63
2021/05/07 13:29:31;;;;;;;7.03;1.30;;;23.00;36.10;;;;;;6066927;28;80960;-63
2021/05/07 13:32:32;;;;;;;5.45;1.73;;;23.00;35.60;;;;;;6062339;28;80206;-64
2021/05/07 13:35:33;;;;;;;5.15;1.73;;;23.00;36.00;;;;;;6066556;28;80539;-65
2021/05/07 13:38:35;;;;;;;2.95;1.60;;;23.00;36.10;;;;;;6066829;28;80387;-64
2021/05/07 13:41:35;;;;;;;4.10;1.48;;;23.10;35.60;;;;;;6058489;28;80617;-63
2021/05/07 13:44:36;;;;;;;4.40;1.80;;;23.10;35.70;;;;;;6061599;28;89318;-65
2021/05/07 13:47:37;;;;;;;4.07;1.77;;;23.10;35.70;;;;;;6061359;28;81502;-63
2021/05/07 13:50:37;;;;;;;2.65;1.55;;;23.10;35.20;;;;;;6057531;28;83223;-64
2021/05/07 13:53:38;;;;;;;2.88;1.90;;;23.10;34.80;;;;;;6052875;28;80536;-65
2021/05/07 13:56:38;;;;;;;2.60;1.52;;;23.10;34.90;;;;;;6064850;28;80764;-64
2021/05/07 13:59:39;;;;;;;6.43;2.00;;;23.10;34.70;;;;;;6060438;28;80536;-63
2021/05/07 14:02:40;;;;;;;5.63;1.92;;;23.10;34.20;;;;;;6061020;28;80999;-66
2021/05/07 14:05:42;;;;;;;3.47;1.85;;;23.10;34.10;;;;;;6050774;28;80757;-65
2021/05/07 14:08:42;;;;;;;3.03;1.60;;;23.10;34.10;;;;;;6054961;28;81180;-64
2021/05/07 14:11:43;;;;;;;4.35;2.00;;;23.10;34.10;;;;;;6062555;28;80494;-64
2021/05/07 14:14:47;;;;;;;2.90;1.65;;;23.10;34.10;;;;;;6062689;28;80367;-65
2021/05/07 14:17:48;;;;;;;2.72;1.70;;;23.10;34.50;;;;;;6060865;28;80479;-65
2021/05/07 14:20:48;;;;;;;3.13;1.70;;;23.10;33.70;;;;;;6064384;28;80026;-65
2021/05/07 14:23:52;;;;;;;4.53;1.73;;;23.10;33.90;;;;;;6059293;28;80661;-64
2021/05/07 14:26:53;;;;;;;3.88;1.85;;;23.10;34.70;;;;;;6071745;28;80558;-64
2021/05/07 14:29:54;;;;;;;4.75;2.40;;;23.10;34.30;;;;;;6061425;28;80494;-63
2021/05/07 14:32:54;;;;;;;2.67;1.83;;;23.10;34.50;;;;;;6067317;28;80801;-63
2021/05/07 14:35:55;;;;;;;4.07;1.50;;;23.10;34.60;;;;;;6064233;28;80494;-64
2021/05/07 14:38:56;;;;;;;3.83;1.80;;;23.10;34.60;;;;;;6059209;28;81134;-65
2021/05/07 14:41:56;;;;;;;2.40;1.83;;;23.10;34.30;;;;;;6057948;28;82945;-64
2021/05/07 14:44:57;;;;;;;4.70;1.77;;;23.10;34.50;;;;;;6061146;28;80621;-65
2021/05/07 14:47:57;;;;;;;6.35;2.03;;;23.10;34.30;;;;;;6070712;28;80302;-65
2021/05/07 14:50:58;;;;;;;2.75;1.80;;;23.10;34.00;;;;;;6053204;28;82709;-64
2021/05/07 14:53:58;;;;;;;5.18;1.70;;;23.10;34.30;;;;;;6059199;28;80474;-65
2021/05/07 14:56:59;;;;;;;6.07;2.38;;;23.10;35.00;;;;;;6050957;28;80438;-65
2021/05/07 14:59:59;;;;;;;6.10;1.80;;;23.10;34.90;;;;;;6051276;28;83267;-64
2021/05/07 15:03:00;;;;;;;4.63;2.13;;;23.20;35.30;;;;;;6053395;28;81617;-64
2021/05/07 15:06:02;;;;;;;2.60;1.75;;;23.20;34.80;;;;;;6057240;28;80453;-65
2021/05/07 15:09:03;;;;;;;2.50;1.60;;;23.20;34.90;;;;;;6054791;28;80784;-66
2021/05/07 15:12:03;;;;;;;5.50;2.00;;;23.20;35.20;;;;;;6060063;28;80372;-66
2021/05/07 15:15:06;;;;;;;3.83;1.70;;;23.20;35.80;;;;;;6056608;28;82231;-67
2021/05/07 15:18:07;;;;;;;2.40;1.75;;;23.10;35.60;;;;;;6056342;28;80587;-67
2021/05/07 15:21:07;;;;;;;10.48;1.95;;;23.20;35.80;;;;;;6058603;28;81256;-67
2021/05/07 15:24:11;;;;;;;3.15;2.08;;;23.20;35.70;;;;;;6056843;28;81467;-65
2021/05/07 15:27:11;;;;;;;2.55;1.80;;;23.20;35.80;;;;;;6051322;28;82017;-67
2021/05/07 15:30:12;;;;;;;3.97;1.95;;;23.30;36.00;;;;;;6054263;28;80971;-66
2021/05/07 15:33:12;;;;;;;3.67;2.10;;;23.30;35.90;;;;;;6066397;28;80308;-65
2021/05/07 15:36:13;;;;;;;3.00;1.88;;;23.30;35.30;;;;;;6055286;28;81662;-65
2021/05/07 15:39:13;;;;;;;4.47;2.05;;;23.30;35.20;;;;;;6064920;28;82719;-65
2021/05/07 15:42:14;;;;;;;2.25;1.52;;;23.30;34.80;;;;;;6061895;28;80667;-65
2021/05/07 15:45:14;;;;;;;3.15;1.88;;;23.30;34.70;;;;;;6062590;28;81499;-65